sensor_id;sensor_type;location;lat;lon;timestamp;P1;durP1;ratioP1;P2;durP2;ratioP2
5900;SDS011;2976;49.764;9.796;2024-01-15T00:01:45;37.80;;;10.27;;
5900;SDS011;2976;49.764;9.796;2024-01-15T00:04:10;22.65;;;8.63;;
5900;SDS011;2976;49.764;9.796;2024-01-15T00:06:36;27.70;;;10.60;;
5900;SDS011;2976;49.764;9.796;2024-01-15T00:09:01;30.90;;;10.83;;
5900;SDS011;2976;49.764;9.796;2024-01-15T00:11:27;41.43;;;13.27;;
5900;SDS011;2976;49.764;9.796;2024-01-15T00:13:53;34.50;;;12.30;;
5900;SDS011;2976;49.764;9.796;2024-01-15T00:16:18;48.33;;;12.67;;
5900;SDS011;2976;49.764;9.796;2024-01-15T00:18:44;37.00;;;10.77;;
5900;SDS011;2976;49.764;9.796;2024-01-15T00:21:09;49.77;;;11.70;;
5900;SDS011;2976;49.764;9.796;2024-01-15T00:23:35;39.53;;;10.83;;
5900;SDS011;2976;49.764;9.796;2024-01-15T00:26:00;57.20;;;12.40;;
5900;SDS011;2976;49.764;9.796;2024-01-15T00:28:26;45.73;;;11.47;;
5900;SDS011;2976;49.764;9.796;2024-01-15T00:30:54;29.20;;;10.73;;
5900;SDS011;2976;49.764;9.796;2024-01-15T00:33:20;50.30;;;11.85;;
5900;SDS011;2976;49.764;9.796;2024-01-15T00:35:46;40.93;;;12.60;;
5900;SDS011;2976;49.764;9.796;2024-01-15T00:38:11;46.03;;;12.37;;
5900;SDS011;2976;49.764;9.796;2024-01-15T00:40:37;45.47;;;11.70;;
5900;SDS011;2976;49.764;9.796;2024-01-15T00:43:02;47.87;;;13.70;;
5900;SDS011;2976;49.764;9.796;2024-01-15T00:45:28;33.23;;;10.20;;
5900;SDS011;2976;49.764;9.796;2024-01-15T00:47:54;29.00;;;10.93;;
5900;SDS011;2976;49.764;9.796;2024-01-15T00:50:21;50.83;;;10.55;;
5900;SDS011;2976;49.764;9.796;2024-01-15T00:52:47;49.37;;;12.70;;
5900;SDS011;2976;49.764;9.796;2024-01-15T00:55:12;43.87;;;12.53;;
5900;SDS011;2976;49.764;9.796;2024-01-15T00:57:38;48.97;;;11.90;;
5900;SDS011;2976;49.764;9.796;2024-01-15T01:00:04;32.72;;;11.50;;
5900;SDS011;2976;49.764;9.796;2024-01-15T01:02:31;51.45;;;11.25;;
5900;SDS011;2976;49.764;9.796;2024-01-15T01:04:57;38.93;;;10.73;;
5900;SDS011;2976;49.764;9.796;2024-01-15T01:07:22;40.13;;;13.23;;
5900;SDS011;2976;49.764;9.796;2024-01-15T01:09:48;32.57;;;11.60;;
5900;SDS011;2976;49.764;9.796;2024-01-15T01:12:14;47.80;;;13.57;;
5900;SDS011;2976;49.764;9.796;2024-01-15T01:14:39;39.17;;;10.93;;
5900;SDS011;2976;49.764;9.796;2024-01-15T01:17:05;33.63;;;10.40;;
5900;SDS011;2976;49.764;9.796;2024-01-15T01:19:31;41.03;;;9.70;;
5900;SDS011;2976;49.764;9.796;2024-01-15T01:21:56;38.37;;;12.50;;
5900;SDS011;2976;49.764;9.796;2024-01-15T01:24:22;41.17;;;9.30;;
5900;SDS011;2976;49.764;9.796;2024-01-15T01:26:47;34.33;;;10.37;;
5900;SDS011;2976;49.764;9.796;2024-01-15T01:29:14;39.63;;;10.60;;
5900;SDS011;2976;49.764;9.796;2024-01-15T01:31:45;62.27;;;12.20;;
5900;SDS011;2976;49.764;9.796;2024-01-15T01:34:13;45.83;;;12.30;;
5900;SDS011;2976;49.764;9.796;2024-01-15T01:36:40;38.63;;;11.85;;
5900;SDS011;2976;49.764;9.796;2024-01-15T01:39:05;36.00;;;11.07;;
5900;SDS011;2976;49.764;9.796;2024-01-15T01:41:31;32.90;;;8.13;;
5900;SDS011;2976;49.764;9.796;2024-01-15T01:43:57;41.57;;;11.37;;
5900;SDS011;2976;49.764;9.796;2024-01-15T01:46:23;41.07;;;11.20;;
5900;SDS011;2976;49.764;9.796;2024-01-15T01:48:49;34.28;;;9.65;;
5900;SDS011;2976;49.764;9.796;2024-01-15T01:51:15;55.20;;;11.32;;
5900;SDS011;2976;49.764;9.796;2024-01-15T01:53:41;31.07;;;10.63;;
5900;SDS011;2976;49.764;9.796;2024-01-15T01:56:09;43.42;;;9.70;;
5900;SDS011;2976;49.764;9.796;2024-01-15T01:58:35;42.10;;;11.80;;
5900;SDS011;2976;49.764;9.796;2024-01-15T02:01:01;30.10;;;9.40;;
5900;SDS011;2976;49.764;9.796;2024-01-15T02:03:27;26.87;;;8.93;;
5900;SDS011;2976;49.764;9.796;2024-01-15T02:05:53;31.25;;;11.00;;
5900;SDS011;2976;49.764;9.796;2024-01-15T02:08:19;29.90;;;8.40;;
5900;SDS011;2976;49.764;9.796;2024-01-15T02:10:44;33.87;;;9.27;;
5900;SDS011;2976;49.764;9.796;2024-01-15T02:13:10;34.10;;;9.50;;
5900;SDS011;2976;49.764;9.796;2024-01-15T02:15:36;20.50;;;8.95;;
5900;SDS011;2976;49.764;9.796;2024-01-15T02:18:02;29.00;;;8.63;;
5900;SDS011;2976;49.764;9.796;2024-01-15T02:20:29;21.90;;;7.85;;
5900;SDS011;2976;49.764;9.796;2024-01-15T02:23:28;33.97;;;8.70;;
5900;SDS011;2976;49.764;9.796;2024-01-15T02:25:47;27.70;;;9.48;;
5900;SDS011;2976;49.764;9.796;2024-01-15T02:28:13;22.70;;;8.57;;
5900;SDS011;2976;49.764;9.796;2024-01-15T02:30:41;16.98;;;8.35;;
5900;SDS011;2976;49.764;9.796;2024-01-15T02:33:07;28.70;;;7.88;;
5900;SDS011;2976;49.764;9.796;2024-01-15T02:35:34;24.38;;;7.82;;
5900;SDS011;2976;49.764;9.796;2024-01-15T02:38:03;25.52;;;9.35;;
5900;SDS011;2976;49.764;9.796;2024-01-15T02:40:29;21.30;;;8.20;;
5900;SDS011;2976;49.764;9.796;2024-01-15T02:42:55;31.87;;;8.97;;
5900;SDS011;2976;49.764;9.796;2024-01-15T02:45:21;28.07;;;8.30;;
5900;SDS011;2976;49.764;9.796;2024-01-15T02:47:47;22.73;;;7.40;;
5900;SDS011;2976;49.764;9.796;2024-01-15T02:50:13;22.40;;;7.23;;
5900;SDS011;2976;49.764;9.796;2024-01-15T02:52:39;25.93;;;8.53;;
5900;SDS011;2976;49.764;9.796;2024-01-15T02:55:05;27.53;;;8.40;;
5900;SDS011;2976;49.764;9.796;2024-01-15T02:57:31;19.07;;;7.70;;
5900;SDS011;2976;49.764;9.796;2024-01-15T02:59:56;28.87;;;9.13;;
5900;SDS011;2976;49.764;9.796;2024-01-15T03:02:22;24.07;;;8.63;;
5900;SDS011;2976;49.764;9.796;2024-01-15T03:04:47;23.53;;;9.73;;
5900;SDS011;2976;49.764;9.796;2024-01-15T03:07:13;21.00;;;8.23;;
5900;SDS011;2976;49.764;9.796;2024-01-15T03:09:39;30.57;;;8.43;;
5900;SDS011;2976;49.764;9.796;2024-01-15T03:12:04;18.47;;;9.00;;
5900;SDS011;2976;49.764;9.796;2024-01-15T03:14:30;32.22;;;9.88;;
5900;SDS011;2976;49.764;9.796;2024-01-15T03:16:56;35.40;;;8.53;;
5900;SDS011;2976;49.764;9.796;2024-01-15T03:19:21;19.37;;;6.47;;
5900;SDS011;2976;49.764;9.796;2024-01-15T03:21:47;21.07;;;7.30;;
5900;SDS011;2976;49.764;9.796;2024-01-15T03:24:13;28.97;;;7.83;;
5900;SDS011;2976;49.764;9.796;2024-01-15T03:26:38;27.20;;;9.03;;
5900;SDS011;2976;49.764;9.796;2024-01-15T03:29:04;28.47;;;8.67;;
5900;SDS011;2976;49.764;9.796;2024-01-15T03:31:32;23.70;;;8.35;;
5900;SDS011;2976;49.764;9.796;2024-01-15T03:33:58;28.23;;;8.10;;
5900;SDS011;2976;49.764;9.796;2024-01-15T03:36:23;18.43;;;7.27;;
5900;SDS011;2976;49.764;9.796;2024-01-15T03:38:49;24.43;;;6.87;;
5900;SDS011;2976;49.764;9.796;2024-01-15T03:41:14;27.70;;;7.83;;
5900;SDS011;2976;49.764;9.796;2024-01-15T03:43:40;26.33;;;9.10;;
5900;SDS011;2976;49.764;9.796;2024-01-15T03:46:06;34.63;;;7.60;;
5900;SDS011;2976;49.764;9.796;2024-01-15T03:48:32;28.80;;;8.73;;
5900;SDS011;2976;49.764;9.796;2024-01-15T03:50:58;24.90;;;7.40;;
5900;SDS011;2976;49.764;9.796;2024-01-15T03:53:23;39.50;;;11.10;;
5900;SDS011;2976;49.764;9.796;2024-01-15T03:55:49;22.63;;;8.73;;
5900;SDS011;2976;49.764;9.796;2024-01-15T03:58:15;25.53;;;6.40;;
5900;SDS011;2976;49.764;9.796;2024-01-15T04:00:41;21.93;;;8.10;;
5900;SDS011;2976;49.764;9.796;2024-01-15T04:03:07;26.10;;;9.30;;
5900;SDS011;2976;49.764;9.796;2024-01-15T04:05:32;22.80;;;7.87;;
5900;SDS011;2976;49.764;9.796;2024-01-15T04:07:58;26.13;;;7.80;;
5900;SDS011;2976;49.764;9.796;2024-01-15T04:10:23;17.47;;;7.67;;
5900;SDS011;2976;49.764;9.796;2024-01-15T04:12:49;15.77;;;7.47;;
5900;SDS011;2976;49.764;9.796;2024-01-15T04:15:14;18.47;;;6.63;;
5900;SDS011;2976;49.764;9.796;2024-01-15T04:17:40;30.13;;;8.57;;
5900;SDS011;2976;49.764;9.796;2024-01-15T04:20:06;35.63;;;9.00;;
5900;SDS011;2976;49.764;9.796;2024-01-15T04:22:32;28.60;;;9.70;;
5900;SDS011;2976;49.764;9.796;2024-01-15T04:24:59;29.97;;;8.50;;
5900;SDS011;2976;49.764;9.796;2024-01-15T04:27:24;32.80;;;7.67;;
5900;SDS011;2976;49.764;9.796;2024-01-15T04:29:50;24.57;;;8.20;;
5900;SDS011;2976;49.764;9.796;2024-01-15T04:32:15;23.97;;;8.73;;
5900;SDS011;2976;49.764;9.796;2024-01-15T04:34:41;20.90;;;8.27;;
5900;SDS011;2976;49.764;9.796;2024-01-15T04:37:06;22.67;;;7.57;;
5900;SDS011;2976;49.764;9.796;2024-01-15T04:39:32;23.43;;;7.90;;
5900;SDS011;2976;49.764;9.796;2024-01-15T04:41:57;23.57;;;7.40;;
5900;SDS011;2976;49.764;9.796;2024-01-15T04:44:23;34.73;;;11.13;;
5900;SDS011;2976;49.764;9.796;2024-01-15T04:46:49;26.77;;;8.43;;
5900;SDS011;2976;49.764;9.796;2024-01-15T04:49:14;27.50;;;7.57;;
5900;SDS011;2976;49.764;9.796;2024-01-15T04:51:40;18.77;;;6.30;;
5900;SDS011;2976;49.764;9.796;2024-01-15T04:54:05;26.47;;;8.80;;
5900;SDS011;2976;49.764;9.796;2024-01-15T04:56:31;29.00;;;7.10;;
5900;SDS011;2976;49.764;9.796;2024-01-15T04:58:56;17.40;;;6.93;;
5900;SDS011;2976;49.764;9.796;2024-01-15T05:01:22;18.33;;;7.20;;
5900;SDS011;2976;49.764;9.796;2024-01-15T05:03:47;24.27;;;7.00;;
5900;SDS011;2976;49.764;9.796;2024-01-15T05:06:14;23.63;;;8.03;;
5900;SDS011;2976;49.764;9.796;2024-01-15T05:08:40;27.83;;;9.07;;
5900;SDS011;2976;49.764;9.796;2024-01-15T05:11:05;35.30;;;9.30;;
5900;SDS011;2976;49.764;9.796;2024-01-15T05:13:31;23.33;;;7.37;;
5900;SDS011;2976;49.764;9.796;2024-01-15T05:15:56;14.27;;;6.63;;
5900;SDS011;2976;49.764;9.796;2024-01-15T05:18:22;28.07;;;9.17;;
5900;SDS011;2976;49.764;9.796;2024-01-15T05:20:47;29.13;;;8.70;;
5900;SDS011;2976;49.764;9.796;2024-01-15T05:23:13;33.73;;;10.73;;
5900;SDS011;2976;49.764;9.796;2024-01-15T05:25:38;42.10;;;11.47;;
5900;SDS011;2976;49.764;9.796;2024-01-15T05:28:05;26.20;;;9.60;;
5900;SDS011;2976;49.764;9.796;2024-01-15T05:30:30;28.15;;;9.55;;
5900;SDS011;2976;49.764;9.796;2024-01-15T05:32:56;15.83;;;6.53;;
5900;SDS011;2976;49.764;9.796;2024-01-15T05:35:22;36.97;;;9.90;;
5900;SDS011;2976;49.764;9.796;2024-01-15T05:37:48;23.73;;;9.07;;
5900;SDS011;2976;49.764;9.796;2024-01-15T05:40:14;24.80;;;8.23;;
5900;SDS011;2976;49.764;9.796;2024-01-15T05:42:39;28.70;;;8.83;;
5900;SDS011;2976;49.764;9.796;2024-01-15T05:45:06;29.45;;;8.02;;
5900;SDS011;2976;49.764;9.796;2024-01-15T05:47:32;22.67;;;7.28;;
5900;SDS011;2976;49.764;9.796;2024-01-15T05:49:58;36.07;;;8.63;;
5900;SDS011;2976;49.764;9.796;2024-01-15T05:52:26;19.70;;;5.65;;
5900;SDS011;2976;49.764;9.796;2024-01-15T05:54:51;31.57;;;9.97;;
5900;SDS011;2976;49.764;9.796;2024-01-15T05:57:17;36.77;;;8.70;;
5900;SDS011;2976;49.764;9.796;2024-01-15T05:59:43;27.27;;;9.43;;
5900;SDS011;2976;49.764;9.796;2024-01-15T06:02:09;21.30;;;7.72;;
5900;SDS011;2976;49.764;9.796;2024-01-15T06:04:35;42.90;;;8.50;;
5900;SDS011;2976;49.764;9.796;2024-01-15T06:07:01;23.37;;;7.27;;
5900;SDS011;2976;49.764;9.796;2024-01-15T06:09:27;24.57;;;7.70;;
5900;SDS011;2976;49.764;9.796;2024-01-15T06:11:53;24.03;;;7.47;;
5900;SDS011;2976;49.764;9.796;2024-01-15T06:14:19;37.57;;;9.60;;
5900;SDS011;2976;49.764;9.796;2024-01-15T06:16:44;32.20;;;8.23;;
5900;SDS011;2976;49.764;9.796;2024-01-15T06:19:10;29.90;;;8.20;;
5900;SDS011;2976;49.764;9.796;2024-01-15T06:21:35;22.53;;;9.10;;
5900;SDS011;2976;49.764;9.796;2024-01-15T06:24:01;25.07;;;8.40;;
5900;SDS011;2976;49.764;9.796;2024-01-15T06:26:26;24.27;;;8.70;;
5900;SDS011;2976;49.764;9.796;2024-01-15T06:28:52;16.80;;;6.40;;
5900;SDS011;2976;49.764;9.796;2024-01-15T06:31:18;22.57;;;8.33;;
5900;SDS011;2976;49.764;9.796;2024-01-15T06:33:43;24.93;;;8.57;;
5900;SDS011;2976;49.764;9.796;2024-01-15T06:36:12;24.83;;;7.47;;
5900;SDS011;2976;49.764;9.796;2024-01-15T06:38:37;22.80;;;6.87;;
5900;SDS011;2976;49.764;9.796;2024-01-15T06:41:03;19.93;;;8.37;;
5900;SDS011;2976;49.764;9.796;2024-01-15T06:43:28;31.03;;;7.90;;
5900;SDS011;2976;49.764;9.796;2024-01-15T06:45:54;20.10;;;8.27;;
5900;SDS011;2976;49.764;9.796;2024-01-15T06:48:19;20.50;;;8.60;;
5900;SDS011;2976;49.764;9.796;2024-01-15T06:50:45;19.47;;;5.90;;
5900;SDS011;2976;49.764;9.796;2024-01-15T06:53:11;25.17;;;9.30;;
5900;SDS011;2976;49.764;9.796;2024-01-15T06:55:37;28.00;;;8.90;;
5900;SDS011;2976;49.764;9.796;2024-01-15T06:58:03;16.97;;;7.10;;
5900;SDS011;2976;49.764;9.796;2024-01-15T07:00:29;26.10;;;8.50;;
5900;SDS011;2976;49.764;9.796;2024-01-15T07:02:55;16.77;;;7.23;;
5900;SDS011;2976;49.764;9.796;2024-01-15T07:05:21;23.13;;;8.20;;
5900;SDS011;2976;49.764;9.796;2024-01-15T07:07:46;30.60;;;7.87;;
5900;SDS011;2976;49.764;9.796;2024-01-15T07:10:12;24.33;;;8.07;;
5900;SDS011;2976;49.764;9.796;2024-01-15T07:12:38;17.57;;;7.60;;
5900;SDS011;2976;49.764;9.796;2024-01-15T07:15:04;24.00;;;8.67;;
5900;SDS011;2976;49.764;9.796;2024-01-15T07:17:32;19.07;;;7.43;;
5900;SDS011;2976;49.764;9.796;2024-01-15T07:19:58;22.63;;;7.77;;
5900;SDS011;2976;49.764;9.796;2024-01-15T07:22:24;26.47;;;8.33;;
5900;SDS011;2976;49.764;9.796;2024-01-15T07:24:49;36.67;;;7.40;;
5900;SDS011;2976;49.764;9.796;2024-01-15T07:27:15;15.53;;;6.30;;
5900;SDS011;2976;49.764;9.796;2024-01-15T07:29:41;17.67;;;7.00;;
5900;SDS011;2976;49.764;9.796;2024-01-15T07:32:07;24.38;;;8.55;;
5900;SDS011;2976;49.764;9.796;2024-01-15T07:34:33;20.80;;;7.03;;
5900;SDS011;2976;49.764;9.796;2024-01-15T07:36:58;18.00;;;6.87;;
5900;SDS011;2976;49.764;9.796;2024-01-15T07:39:24;22.33;;;8.20;;
5900;SDS011;2976;49.764;9.796;2024-01-15T07:41:50;22.10;;;7.20;;
5900;SDS011;2976;49.764;9.796;2024-01-15T07:44:16;19.83;;;6.33;;
5900;SDS011;2976;49.764;9.796;2024-01-15T07:46:45;24.63;;;7.90;;
5900;SDS011;2976;49.764;9.796;2024-01-15T07:49:11;13.10;;;6.00;;
5900;SDS011;2976;49.764;9.796;2024-01-15T07:51:37;16.37;;;6.70;;
5900;SDS011;2976;49.764;9.796;2024-01-15T07:54:05;20.83;;;7.23;;
5900;SDS011;2976;49.764;9.796;2024-01-15T07:56:31;22.43;;;6.97;;
5900;SDS011;2976;49.764;9.796;2024-01-15T07:58:56;23.67;;;7.87;;
5900;SDS011;2976;49.764;9.796;2024-01-15T08:01:22;17.83;;;6.13;;
5900;SDS011;2976;49.764;9.796;2024-01-15T08:03:47;14.13;;;4.47;;
5900;SDS011;2976;49.764;9.796;2024-01-15T08:06:13;19.40;;;8.03;;
5900;SDS011;2976;49.764;9.796;2024-01-15T08:08:39;19.90;;;6.57;;
5900;SDS011;2976;49.764;9.796;2024-01-15T08:11:04;26.87;;;8.87;;
5900;SDS011;2976;49.764;9.796;2024-01-15T08:13:30;20.13;;;7.83;;
5900;SDS011;2976;49.764;9.796;2024-01-15T08:15:55;21.67;;;6.90;;
5900;SDS011;2976;49.764;9.796;2024-01-15T08:18:21;24.20;;;8.00;;
5900;SDS011;2976;49.764;9.796;2024-01-15T08:20:47;27.07;;;9.43;;
5900;SDS011;2976;49.764;9.796;2024-01-15T08:23:12;21.93;;;7.17;;
5900;SDS011;2976;49.764;9.796;2024-01-15T08:25:38;30.93;;;7.60;;
5900;SDS011;2976;49.764;9.796;2024-01-15T08:28:04;19.73;;;7.30;;
5900;SDS011;2976;49.764;9.796;2024-01-15T08:30:30;18.30;;;6.37;;
5900;SDS011;2976;49.764;9.796;2024-01-15T08:32:56;18.90;;;6.57;;
5900;SDS011;2976;49.764;9.796;2024-01-15T08:35:22;19.60;;;8.20;;
5900;SDS011;2976;49.764;9.796;2024-01-15T08:37:51;19.30;;;8.50;;
5900;SDS011;2976;49.764;9.796;2024-01-15T08:40:18;20.53;;;7.67;;
5900;SDS011;2976;49.764;9.796;2024-01-15T08:42:43;30.43;;;9.50;;
5900;SDS011;2976;49.764;9.796;2024-01-15T08:45:10;23.73;;;7.00;;
5900;SDS011;2976;49.764;9.796;2024-01-15T08:47:36;19.03;;;7.50;;
5900;SDS011;2976;49.764;9.796;2024-01-15T08:50:02;25.17;;;9.47;;
5900;SDS011;2976;49.764;9.796;2024-01-15T08:52:28;20.10;;;7.07;;
5900;SDS011;2976;49.764;9.796;2024-01-15T08:54:55;22.07;;;8.30;;
5900;SDS011;2976;49.764;9.796;2024-01-15T08:57:24;18.90;;;7.93;;
5900;SDS011;2976;49.764;9.796;2024-01-15T08:59:49;13.00;;;6.67;;
5900;SDS011;2976;49.764;9.796;2024-01-15T09:02:16;26.03;;;9.50;;
5900;SDS011;2976;49.764;9.796;2024-01-15T09:04:41;21.30;;;8.50;;
5900;SDS011;2976;49.764;9.796;2024-01-15T09:07:07;17.23;;;6.77;;
5900;SDS011;2976;49.764;9.796;2024-01-15T09:09:33;26.57;;;8.47;;
5900;SDS011;2976;49.764;9.796;2024-01-15T09:11:59;23.37;;;7.80;;
5900;SDS011;2976;49.764;9.796;2024-01-15T09:14:25;15.10;;;6.77;;
5900;SDS011;2976;49.764;9.796;2024-01-15T09:16:52;17.13;;;7.37;;
5900;SDS011;2976;49.764;9.796;2024-01-15T09:19:18;24.27;;;7.50;;
5900;SDS011;2976;49.764;9.796;2024-01-15T09:21:44;20.10;;;8.40;;
5900;SDS011;2976;49.764;9.796;2024-01-15T09:24:09;23.73;;;8.20;;
5900;SDS011;2976;49.764;9.796;2024-01-15T09:26:35;19.67;;;7.37;;
5900;SDS011;2976;49.764;9.796;2024-01-15T09:29:00;20.83;;;7.00;;
5900;SDS011;2976;49.764;9.796;2024-01-15T09:31:27;16.57;;;6.50;;
5900;SDS011;2976;49.764;9.796;2024-01-15T09:33:53;20.20;;;7.70;;
5900;SDS011;2976;49.764;9.796;2024-01-15T09:36:21;20.43;;;8.33;;
5900;SDS011;2976;49.764;9.796;2024-01-15T09:38:50;25.33;;;9.67;;
5900;SDS011;2976;49.764;9.796;2024-01-15T09:41:16;35.40;;;7.90;;
5900;SDS011;2976;49.764;9.796;2024-01-15T09:43:42;21.63;;;8.60;;
5900;SDS011;2976;49.764;9.796;2024-01-15T09:46:08;16.53;;;6.90;;
5900;SDS011;2976;49.764;9.796;2024-01-15T09:48:34;19.53;;;6.43;;
5900;SDS011;2976;49.764;9.796;2024-01-15T09:51:02;16.53;;;7.70;;
5900;SDS011;2976;49.764;9.796;2024-01-15T09:53:30;16.90;;;7.70;;
5900;SDS011;2976;49.764;9.796;2024-01-15T09:55:57;26.07;;;7.20;;
5900;SDS011;2976;49.764;9.796;2024-01-15T09:58:23;20.70;;;7.43;;
5900;SDS011;2976;49.764;9.796;2024-01-15T10:00:49;28.13;;;10.53;;
5900;SDS011;2976;49.764;9.796;2024-01-15T10:03:16;23.20;;;7.83;;
5900;SDS011;2976;49.764;9.796;2024-01-15T10:05:42;52.13;;;20.97;;
5900;SDS011;2976;49.764;9.796;2024-01-15T10:08:08;17.03;;;7.70;;
5900;SDS011;2976;49.764;9.796;2024-01-15T10:10:35;23.07;;;8.30;;
5900;SDS011;2976;49.764;9.796;2024-01-15T10:13:02;24.80;;;7.87;;
5900;SDS011;2976;49.764;9.796;2024-01-15T10:15:29;19.67;;;7.77;;
5900;SDS011;2976;49.764;9.796;2024-01-15T10:17:54;19.90;;;8.63;;
5900;SDS011;2976;49.764;9.796;2024-01-15T10:20:20;25.07;;;7.83;;
5900;SDS011;2976;49.764;9.796;2024-01-15T10:22:49;23.50;;;7.93;;
5900;SDS011;2976;49.764;9.796;2024-01-15T10:25:15;26.40;;;7.53;;
5900;SDS011;2976;49.764;9.796;2024-01-15T10:27:41;19.93;;;7.70;;
5900;SDS011;2976;49.764;9.796;2024-01-15T10:30:07;24.30;;;7.50;;
5900;SDS011;2976;49.764;9.796;2024-01-15T10:32:33;23.27;;;7.73;;
5900;SDS011;2976;49.764;9.796;2024-01-15T10:34:59;23.60;;;8.50;;
5900;SDS011;2976;49.764;9.796;2024-01-15T10:37:24;16.33;;;7.50;;
5900;SDS011;2976;49.764;9.796;2024-01-15T10:39:50;16.50;;;7.00;;
5900;SDS011;2976;49.764;9.796;2024-01-15T10:42:16;27.53;;;8.00;;
5900;SDS011;2976;49.764;9.796;2024-01-15T10:44:43;24.87;;;9.10;;
5900;SDS011;2976;49.764;9.796;2024-01-15T10:47:11;20.27;;;8.67;;
5900;SDS011;2976;49.764;9.796;2024-01-15T10:49:37;21.73;;;8.23;;
5900;SDS011;2976;49.764;9.796;2024-01-15T10:52:04;20.73;;;7.93;;
5900;SDS011;2976;49.764;9.796;2024-01-15T10:54:29;19.30;;;8.00;;
5900;SDS011;2976;49.764;9.796;2024-01-15T10:56:58;21.83;;;6.90;;
5900;SDS011;2976;49.764;9.796;2024-01-15T10:59:24;23.10;;;7.83;;
5900;SDS011;2976;49.764;9.796;2024-01-15T11:01:50;16.70;;;6.63;;
5900;SDS011;2976;49.764;9.796;2024-01-15T11:04:19;17.23;;;6.70;;
5900;SDS011;2976;49.764;9.796;2024-01-15T11:06:47;10.50;;;5.80;;
5900;SDS011;2976;49.764;9.796;2024-01-15T11:09:21;16.73;;;6.30;;
5900;SDS011;2976;49.764;9.796;2024-01-15T11:11:47;16.13;;;6.23;;
5900;SDS011;2976;49.764;9.796;2024-01-15T11:14:33;16.87;;;6.77;;
5900;SDS011;2976;49.764;9.796;2024-01-15T11:17:08;14.47;;;6.43;;
5900;SDS011;2976;49.764;9.796;2024-01-15T11:19:38;15.40;;;6.07;;
5900;SDS011;2976;49.764;9.796;2024-01-15T11:22:10;16.53;;;7.47;;
5900;SDS011;2976;49.764;9.796;2024-01-15T11:25:17;11.53;;;5.50;;
5900;SDS011;2976;49.764;9.796;2024-01-15T11:27:46;12.33;;;5.07;;
5900;SDS011;2976;49.764;9.796;2024-01-15T11:30:16;12.40;;;6.03;;
5900;SDS011;2976;49.764;9.796;2024-01-15T11:32:42;13.13;;;5.63;;
5900;SDS011;2976;49.764;9.796;2024-01-15T11:35:09;13.23;;;5.73;;
5900;SDS011;2976;49.764;9.796;2024-01-15T11:40:58;11.07;;;4.57;;
5900;SDS011;2976;49.764;9.796;2024-01-15T11:43:08;14.67;;;6.47;;
5900;SDS011;2976;49.764;9.796;2024-01-15T11:45:34;12.50;;;4.53;;
5900;SDS011;2976;49.764;9.796;2024-01-15T11:50:48;9.80;;;3.90;;
5900;SDS011;2976;49.764;9.796;2024-01-15T11:53:21;12.50;;;5.60;;
5900;SDS011;2976;49.764;9.796;2024-01-15T11:56:15;11.77;;;5.43;;
5900;SDS011;2976;49.764;9.796;2024-01-15T11:58:42;14.17;;;4.50;;
5900;SDS011;2976;49.764;9.796;2024-01-15T12:01:08;13.50;;;5.30;;
5900;SDS011;2976;49.764;9.796;2024-01-15T12:03:35;15.80;;;5.40;;
5900;SDS011;2976;49.764;9.796;2024-01-15T12:06:00;9.10;;;5.93;;
5900;SDS011;2976;49.764;9.796;2024-01-15T12:08:26;11.00;;;5.53;;
5900;SDS011;2976;49.764;9.796;2024-01-15T12:10:52;11.73;;;5.60;;
5900;SDS011;2976;49.764;9.796;2024-01-15T12:13:18;14.80;;;5.87;;
5900;SDS011;2976;49.764;9.796;2024-01-15T12:15:45;14.73;;;7.27;;
5900;SDS011;2976;49.764;9.796;2024-01-15T12:18:13;14.80;;;6.00;;
5900;SDS011;2976;49.764;9.796;2024-01-15T12:20:43;6.90;;;3.63;;
5900;SDS011;2976;49.764;9.796;2024-01-15T12:23:11;11.50;;;5.10;;
5900;SDS011;2976;49.764;9.796;2024-01-15T12:25:38;9.83;;;4.57;;
5900;SDS011;2976;49.764;9.796;2024-01-15T12:28:05;8.23;;;4.23;;
5900;SDS011;2976;49.764;9.796;2024-01-15T12:30:32;9.37;;;4.27;;
5900;SDS011;2976;49.764;9.796;2024-01-15T12:33:05;14.57;;;6.53;;
5900;SDS011;2976;49.764;9.796;2024-01-15T12:35:33;8.57;;;5.60;;
5900;SDS011;2976;49.764;9.796;2024-01-15T12:37:59;7.13;;;4.73;;
5900;SDS011;2976;49.764;9.796;2024-01-15T12:40:28;7.97;;;4.53;;
5900;SDS011;2976;49.764;9.796;2024-01-15T12:42:55;9.80;;;4.83;;
5900;SDS011;2976;49.764;9.796;2024-01-15T12:45:21;5.20;;;3.40;;
5900;SDS011;2976;49.764;9.796;2024-01-15T12:47:47;6.40;;;4.10;;
5900;SDS011;2976;49.764;9.796;2024-01-15T12:50:13;6.43;;;4.20;;
5900;SDS011;2976;49.764;9.796;2024-01-15T12:52:41;10.30;;;4.83;;
5900;SDS011;2976;49.764;9.796;2024-01-15T12:55:07;11.77;;;5.87;;
5900;SDS011;2976;49.764;9.796;2024-01-15T12:57:34;8.70;;;5.07;;
5900;SDS011;2976;49.764;9.796;2024-01-15T13:00:00;8.00;;;4.73;;
5900;SDS011;2976;49.764;9.796;2024-01-15T13:02:26;9.73;;;4.67;;
5900;SDS011;2976;49.764;9.796;2024-01-15T13:04:51;9.80;;;4.03;;
5900;SDS011;2976;49.764;9.796;2024-01-15T13:07:19;10.43;;;4.27;;
5900;SDS011;2976;49.764;9.796;2024-01-15T13:09:44;13.47;;;4.40;;
5900;SDS011;2976;49.764;9.796;2024-01-15T13:12:10;8.90;;;3.70;;
5900;SDS011;2976;49.764;9.796;2024-01-15T13:14:36;6.50;;;4.37;;
5900;SDS011;2976;49.764;9.796;2024-01-15T13:17:02;6.47;;;4.40;;
5900;SDS011;2976;49.764;9.796;2024-01-15T13:19:28;5.87;;;3.60;;
5900;SDS011;2976;49.764;9.796;2024-01-15T13:21:54;6.67;;;3.47;;
5900;SDS011;2976;49.764;9.796;2024-01-15T13:24:21;4.50;;;3.10;;
5900;SDS011;2976;49.764;9.796;2024-01-15T13:26:46;10.00;;;5.33;;
5900;SDS011;2976;49.764;9.796;2024-01-15T13:29:12;8.13;;;6.13;;
5900;SDS011;2976;49.764;9.796;2024-01-15T13:31:38;7.87;;;4.23;;
5900;SDS011;2976;49.764;9.796;2024-01-15T13:34:04;10.30;;;4.87;;
5900;SDS011;2976;49.764;9.796;2024-01-15T13:36:29;6.53;;;3.70;;
5900;SDS011;2976;49.764;9.796;2024-01-15T13:38:55;9.40;;;5.60;;
5900;SDS011;2976;49.764;9.796;2024-01-15T13:41:21;10.40;;;4.00;;
5900;SDS011;2976;49.764;9.796;2024-01-15T13:43:50;7.20;;;4.40;;
5900;SDS011;2976;49.764;9.796;2024-01-15T13:46:19;6.13;;;3.43;;
5900;SDS011;2976;49.764;9.796;2024-01-15T13:48:46;7.40;;;5.07;;
5900;SDS011;2976;49.764;9.796;2024-01-15T13:51:12;7.73;;;3.63;;
5900;SDS011;2976;49.764;9.796;2024-01-15T13:53:38;12.10;;;4.10;;
5900;SDS011;2976;49.764;9.796;2024-01-15T13:56:04;5.40;;;3.73;;
5900;SDS011;2976;49.764;9.796;2024-01-15T13:58:30;12.20;;;6.50;;
5900;SDS011;2976;49.764;9.796;2024-01-15T14:00:57;13.43;;;6.97;;
5900;SDS011;2976;49.764;9.796;2024-01-15T14:03:23;12.67;;;5.83;;
5900;SDS011;2976;49.764;9.796;2024-01-15T14:05:50;21.60;;;8.97;;
5900;SDS011;2976;49.764;9.796;2024-01-15T14:08:16;4.73;;;3.30;;
5900;SDS011;2976;49.764;9.796;2024-01-15T14:10:42;16.47;;;6.30;;
5900;SDS011;2976;49.764;9.796;2024-01-15T14:13:07;20.10;;;7.73;;
5900;SDS011;2976;49.764;9.796;2024-01-15T14:15:33;16.57;;;7.83;;
5900;SDS011;2976;49.764;9.796;2024-01-15T14:17:59;8.93;;;5.60;;
5900;SDS011;2976;49.764;9.796;2024-01-15T14:20:25;36.10;;;14.80;;
5900;SDS011;2976;49.764;9.796;2024-01-15T14:22:52;12.90;;;6.93;;
5900;SDS011;2976;49.764;9.796;2024-01-15T14:25:18;9.33;;;4.30;;
5900;SDS011;2976;49.764;9.796;2024-01-15T14:27:43;7.60;;;4.13;;
5900;SDS011;2976;49.764;9.796;2024-01-15T14:30:09;16.80;;;9.20;;
5900;SDS011;2976;49.764;9.796;2024-01-15T14:32:37;18.67;;;8.47;;
5900;SDS011;2976;49.764;9.796;2024-01-15T14:35:03;14.93;;;6.40;;
5900;SDS011;2976;49.764;9.796;2024-01-15T14:37:30;10.90;;;6.50;;
5900;SDS011;2976;49.764;9.796;2024-01-15T14:39:56;12.67;;;4.60;;
5900;SDS011;2976;49.764;9.796;2024-01-15T14:42:21;8.20;;;5.10;;
5900;SDS011;2976;49.764;9.796;2024-01-15T14:44:47;12.30;;;4.07;;
5900;SDS011;2976;49.764;9.796;2024-01-15T14:47:12;10.80;;;4.50;;
5900;SDS011;2976;49.764;9.796;2024-01-15T14:49:38;6.73;;;3.97;;
5900;SDS011;2976;49.764;9.796;2024-01-15T14:52:04;8.13;;;4.17;;
5900;SDS011;2976;49.764;9.796;2024-01-15T14:54:30;12.77;;;5.07;;
5900;SDS011;2976;49.764;9.796;2024-01-15T14:56:55;9.87;;;5.20;;
5900;SDS011;2976;49.764;9.796;2024-01-15T14:59:21;10.40;;;5.03;;
5900;SDS011;2976;49.764;9.796;2024-01-15T15:01:47;10.33;;;5.50;;